createdAt,value
2022-12-16T00:01:09.276Z,9.52
2022-12-16T00:03:39.712Z,8.70
2022-12-16T00:06:10.675Z,8.88
2022-12-16T00:08:40.626Z,9.82
2022-12-16T00:11:09.959Z,9.25
2022-12-16T00:13:42.968Z,9.05
2022-12-16T00:16:13.042Z,8.55
2022-12-16T00:18:42.137Z,8.77
2022-12-16T00:21:11.754Z,8.18
2022-12-16T00:23:42.033Z,9.27
2022-12-16T00:26:12.760Z,8.32
2022-12-16T00:28:44.096Z,7.53
2022-12-16T00:31:13.175Z,8.07
2022-12-16T00:33:42.131Z,7.63
2022-12-16T00:36:11.668Z,8.10
2022-12-16T00:38:42.619Z,8.10
2022-12-16T00:41:41.022Z,7.63
2022-12-16T00:44:15.665Z,7.95
2022-12-16T00:46:44.287Z,12.85
2022-12-16T00:49:13.012Z,10.15
2022-12-16T00:51:45.368Z,15.57
2022-12-16T00:54:14.004Z,21.13
2022-12-16T00:56:42.683Z,22.58
2022-12-16T00:59:11.708Z,23.65
2022-12-16T01:01:54.143Z,25.63
2022-12-16T01:04:26.874Z,14.82
2022-12-16T01:06:55.571Z,18.08
2022-12-16T01:09:26.532Z,14.35
2022-12-16T01:11:55.166Z,8.52
2022-12-16T01:14:23.886Z,7.45
2022-12-16T01:17:05.547Z,7.60
2022-12-16T01:19:35.448Z,6.93
2022-12-16T01:22:05.703Z,6.80
2022-12-16T01:24:34.470Z,6.40
2022-12-16T01:27:02.991Z,6.63
2022-12-16T01:29:32.300Z,6.55
2022-12-16T01:32:16.448Z,6.90
2022-12-16T01:34:49.692Z,6.30
2022-12-16T01:37:21.759Z,6.25
2022-12-16T01:39:52.972Z,6.07
2022-12-16T01:42:28.959Z,6.63
2022-12-16T01:44:59.486Z,6.32
2022-12-16T01:47:33.143Z,6.75
2022-12-16T01:50:04.517Z,6.25
2022-12-16T01:52:35.655Z,5.57
2022-12-16T01:55:08.576Z,6.70
2022-12-16T01:57:42.917Z,6.15
2022-12-16T02:00:16.659Z,6.43
2022-12-16T02:05:23.576Z,5.53
2022-12-16T02:08:00.797Z,5.30
2022-12-16T02:10:50.694Z,5.05
2022-12-16T02:13:23.809Z,5.40
2022-12-16T02:15:56.757Z,5.00
2022-12-16T02:18:33.755Z,5.30
2022-12-16T02:21:38.406Z,5.10
2022-12-16T02:24:16.151Z,4.82
2022-12-16T02:27:13.056Z,4.90
2022-12-16T02:30:02.320Z,4.95
2022-12-16T02:32:36.109Z,4.25
2022-12-16T02:37:42.840Z,4.22
2022-12-16T02:40:21.881Z,5.10
2022-12-16T02:42:59.096Z,5.10
2022-12-16T02:45:29.810Z,6.95
2022-12-16T02:48:00.312Z,9.93
2022-12-16T02:50:38.367Z,8.27
2022-12-16T02:53:10.851Z,6.70
2022-12-16T02:55:50.381Z,4.95
2022-12-16T02:58:21.356Z,4.35
2022-12-16T03:00:53.934Z,3.75
2022-12-16T03:05:55.748Z,3.60
2022-12-16T03:08:27.376Z,3.50
2022-12-16T03:10:58.461Z,4.32
2022-12-16T03:13:27.527Z,3.80
2022-12-16T03:15:58.719Z,3.92
2022-12-16T03:18:29.600Z,2.85
2022-12-16T03:21:04.337Z,3.92
2022-12-16T03:23:35.732Z,4.07
2022-12-16T03:26:10.847Z,3.47
2022-12-16T03:28:47.728Z,3.33
2022-12-16T03:31:20.536Z,3.28
2022-12-16T03:33:52.613Z,3.37
2022-12-16T03:36:26.934Z,2.97
2022-12-16T03:38:57.680Z,3.75
2022-12-16T03:41:26.582Z,3.70
2022-12-16T03:44:01.754Z,3.55
2022-12-16T03:46:36.475Z,3.63
2022-12-16T03:49:11.368Z,3.67
2022-12-16T03:54:30.290Z,3.05
2022-12-16T03:56:59.276Z,3.17
2022-12-16T03:59:28.865Z,4.32
2022-12-16T04:01:57.809Z,3.40
2022-12-16T04:04:26.877Z,2.80
2022-12-16T04:07:13.780Z,2.85
2022-12-16T04:09:44.949Z,3.33
2022-12-16T04:12:31.226Z,2.88
2022-12-16T04:15:18.500Z,3.63
2022-12-16T04:18:04.642Z,2.75
2022-12-16T04:20:55.083Z,3.78
2022-12-16T04:23:46.280Z,2.90
2022-12-16T04:26:15.123Z,3.20
2022-12-16T04:28:43.799Z,2.97
2022-12-16T04:31:15.981Z,3.20
2022-12-16T04:34:05.367Z,2.97
2022-12-16T04:36:51.972Z,2.85
2022-12-16T04:39:39.580Z,3.08
2022-12-16T04:42:26.765Z,2.95
2022-12-16T04:45:18.726Z,3.00
2022-12-16T04:48:04.866Z,2.88
2022-12-16T04:50:53.448Z,2.85
2022-12-16T04:53:39.576Z,2.65
2022-12-16T04:56:27.053Z,3.13
2022-12-16T04:59:15.840Z,2.85
2022-12-16T05:02:01.885Z,2.63
2022-12-16T05:04:48.390Z,2.63
2022-12-16T05:07:38.213Z,3.20
2022-12-16T05:10:25.492Z,2.97
2022-12-16T05:13:14.609Z,3.17
2022-12-16T05:16:03.686Z,2.85
2022-12-16T05:18:49.743Z,2.78
2022-12-16T05:21:35.829Z,2.85
2022-12-16T05:24:25.274Z,3.00
2022-12-16T05:27:11.154Z,3.70
2022-12-16T05:29:58.411Z,3.47
2022-12-16T05:32:44.416Z,6.22
2022-12-16T05:35:30.353Z,4.88
2022-12-16T05:38:16.285Z,3.72
2022-12-16T05:41:02.790Z,6.45
2022-12-16T05:43:49.126Z,5.18
2022-12-16T05:46:37.836Z,3.80
2022-12-16T05:49:24.516Z,6.00
2022-12-16T05:52:10.677Z,4.60
2022-12-16T05:54:56.638Z,5.03
2022-12-16T05:57:42.975Z,4.63
2022-12-16T06:00:29.852Z,4.70
2022-12-16T06:03:17.412Z,3.72
2022-12-16T06:06:03.686Z,4.53
2022-12-16T06:08:53.042Z,4.20
2022-12-16T06:11:39.555Z,6.35
2022-12-16T06:14:25.936Z,4.82
2022-12-16T06:17:21.850Z,4.75
2022-12-16T06:23:13.008Z,4.32
2022-12-16T06:26:01.125Z,4.63
2022-12-16T06:28:53.511Z,4.57
2022-12-16T06:31:39.443Z,4.30
2022-12-16T06:34:28.049Z,4.07
2022-12-16T06:40:39.201Z,3.97
2022-12-16T06:43:27.442Z,4.80
2022-12-16T06:46:31.255Z,3.90
2022-12-16T06:49:17.648Z,3.80
2022-12-16T06:52:03.722Z,4.72
2022-12-16T06:54:51.159Z,4.57
2022-12-16T06:57:38.587Z,4.25
2022-12-16T07:00:33.168Z,4.32
2022-12-16T07:03:25.289Z,5.38
2022-12-16T07:06:16.735Z,5.63
2022-12-16T07:09:20.808Z,6.28
2022-12-16T07:12:13.357Z,4.28
2022-12-16T07:15:00.988Z,5.05
2022-12-16T07:17:46.989Z,5.30
2022-12-16T07:20:33.964Z,4.68
2022-12-16T07:23:20.330Z,3.67
2022-12-16T07:26:21.031Z,5.78
2022-12-16T07:29:06.995Z,4.25
2022-12-16T07:31:54.697Z,7.78
2022-12-16T07:34:51.034Z,6.95
2022-12-16T07:37:37.419Z,7.18
2022-12-16T07:40:23.818Z,4.90
2022-12-16T07:43:10.289Z,5.05
2022-12-16T07:45:57.249Z,4.65
2022-12-16T07:48:44.737Z,5.55
2022-12-16T07:51:31.204Z,6.80
2022-12-16T07:54:17.378Z,5.25
2022-12-16T07:57:05.792Z,6.22
2022-12-16T07:59:51.823Z,6.47
2022-12-16T08:02:38.115Z,12.05
2022-12-16T08:05:41.139Z,18.52
2022-12-16T08:08:28.519Z,28.23
2022-12-16T08:11:14.679Z,18.77
2022-12-16T08:14:00.818Z,10.68
2022-12-16T08:16:48.473Z,6.65
2022-12-16T08:19:38.088Z,5.63
2022-12-16T08:22:24.129Z,5.95
2022-12-16T08:25:11.789Z,5.47
2022-12-16T08:27:58.058Z,5.03
2022-12-16T08:30:44.258Z,6.82
2022-12-16T08:33:30.765Z,6.10
2022-12-16T08:36:17.568Z,5.82
2022-12-16T08:39:05.968Z,4.82
2022-12-16T08:42:10.857Z,4.88
2022-12-16T08:45:05.691Z,21.73
2022-12-16T08:48:01.830Z,9.48
2022-12-16T08:50:50.116Z,7.55
2022-12-16T08:53:50.098Z,7.00
2022-12-16T08:56:36.426Z,5.97
2022-12-16T08:59:27.340Z,6.30
2022-12-16T09:02:15.258Z,5.05
2022-12-16T09:05:01.210Z,5.43
2022-12-16T09:07:52.012Z,5.22
2022-12-16T09:10:40.695Z,5.78
2022-12-16T09:13:27.281Z,5.38
2022-12-16T09:16:19.784Z,5.95
2022-12-16T09:19:06.488Z,5.65
2022-12-16T09:22:07.562Z,6.05
2022-12-16T09:24:54.573Z,7.43
2022-12-16T09:27:42.338Z,6.15
2022-12-16T09:30:32.331Z,5.25
2022-12-16T09:33:23.613Z,5.80
2022-12-16T09:36:09.599Z,5.72
2022-12-16T09:39:02.111Z,5.55
2022-12-16T09:42:01.828Z,5.70
2022-12-16T09:45:07.397Z,5.28
2022-12-16T09:48:10.856Z,6.30
2022-12-16T09:50:59.640Z,5.85
2022-12-16T09:54:18.326Z,5.55
2022-12-16T09:57:11.072Z,5.85
2022-12-16T10:00:00.294Z,7.30
2022-12-16T10:03:15.658Z,6.30
2022-12-16T10:06:05.232Z,6.57
2022-12-16T10:08:57.836Z,6.60
2022-12-16T10:11:51.157Z,6.65
2022-12-16T10:14:53.191Z,6.82
2022-12-16T10:17:41.750Z,5.70
2022-12-16T10:20:33.706Z,6.45
2022-12-16T10:23:24.538Z,5.88
2022-12-16T10:26:22.367Z,6.72
2022-12-16T10:29:14.922Z,7.10
2022-12-16T10:32:05.543Z,6.70
2022-12-16T10:34:54.798Z,6.50
2022-12-16T10:37:52.423Z,6.63
2022-12-16T10:40:46.093Z,7.40
2022-12-16T10:43:37.011Z,7.05
2022-12-16T10:46:34.989Z,6.57
2022-12-16T10:49:28.200Z,6.22
2022-12-16T10:52:19.848Z,8.38
2022-12-16T10:55:12.757Z,6.45
2022-12-16T10:58:05.814Z,8.02
2022-12-16T11:01:24.883Z,6.50
2022-12-16T11:04:25.983Z,6.75
2022-12-16T11:07:36.194Z,12.85
2022-12-16T11:10:44.075Z,7.95
2022-12-16T11:13:58.529Z,7.32
2022-12-16T11:16:47.633Z,7.25
2022-12-16T11:19:41.387Z,6.22
2022-12-16T11:28:42.531Z,7.13
2022-12-16T11:31:46.063Z,6.80
2022-12-16T11:34:33.780Z,7.80
2022-12-16T11:44:02.509Z,6.47
2022-12-16T11:47:02.837Z,6.07
2022-12-16T11:50:02.352Z,7.70
2022-12-16T11:53:05.440Z,9.68
2022-12-16T11:56:10.846Z,7.63
2022-12-16T11:59:04.833Z,6.18
2022-12-16T12:02:03.240Z,7.53
2022-12-16T12:04:54.664Z,7.00
2022-12-16T12:07:52.394Z,8.20
2022-12-16T12:10:56.755Z,9.93
2022-12-16T12:14:05.301Z,9.90
2022-12-16T12:17:07.298Z,10.43
2022-12-16T12:20:00.966Z,11.00
2022-12-16T12:22:54.008Z,9.60
2022-12-16T12:25:54.007Z,10.82
2022-12-16T12:28:43.962Z,7.53
2022-12-16T12:31:39.165Z,6.10
2022-12-16T12:34:34.012Z,7.93
2022-12-16T12:37:24.932Z,7.63
2022-12-16T12:40:16.307Z,7.68
2022-12-16T12:43:05.207Z,7.78
2022-12-16T12:46:02.200Z,8.50
2022-12-16T12:48:55.985Z,10.13
2022-12-16T12:51:48.583Z,10.25
2022-12-16T12:54:46.508Z,8.95
2022-12-16T12:57:44.649Z,9.65
2022-12-16T13:00:48.764Z,9.20
2022-12-16T13:03:39.538Z,7.18
2022-12-16T13:06:40.541Z,8.50
2022-12-16T13:09:38.150Z,8.30
2022-12-16T13:12:45.305Z,9.00
2022-12-16T13:15:41.129Z,13.52
2022-12-16T13:18:39.661Z,13.25
2022-12-16T13:21:49.757Z,8.65
2022-12-16T13:24:49.503Z,7.28
2022-12-16T13:27:39.182Z,8.25
2022-12-16T13:30:38.503Z,7.65
2022-12-16T13:33:40.364Z,6.93
2022-12-16T13:36:28.165Z,8.00
2022-12-16T13:39:23.079Z,6.25
2022-12-16T13:42:32.252Z,6.20
2022-12-16T13:45:19.093Z,6.68
2022-12-16T13:48:22.926Z,6.60
2022-12-16T13:51:18.838Z,7.32
2022-12-16T13:54:09.521Z,6.32
2022-12-16T14:00:15.356Z,7.32
2022-12-16T14:03:03.516Z,7.28
2022-12-16T14:05:50.762Z,6.55
2022-12-16T14:08:43.747Z,7.43
2022-12-16T14:11:35.088Z,6.63
2022-12-16T14:14:35.845Z,6.45
2022-12-16T14:17:26.123Z,7.25
2022-12-16T14:20:17.309Z,6.97
2022-12-16T14:23:10.888Z,7.25
2022-12-16T14:26:19.734Z,7.60
2022-12-16T14:29:06.911Z,7.82
2022-12-16T14:31:57.161Z,7.65
2022-12-16T14:34:50.805Z,7.85
2022-12-16T14:37:37.986Z,4.82
2022-12-16T14:40:39.393Z,8.23
2022-12-16T14:43:36.854Z,7.80
2022-12-16T14:46:37.513Z,7.15
2022-12-16T14:49:23.491Z,7.78
2022-12-16T14:52:17.893Z,8.52
2022-12-16T14:57:55.558Z,12.20
2022-12-16T15:00:57.627Z,14.65
2022-12-16T15:03:50.575Z,12.55
2022-12-16T15:06:55.640Z,10.48
2022-12-16T15:09:48.939Z,8.40
2022-12-16T15:15:46.624Z,10.63
2022-12-16T15:18:39.917Z,11.05
2022-12-16T15:21:34.226Z,10.88
2022-12-16T15:24:20.708Z,12.68
2022-12-16T15:27:06.754Z,10.48
2022-12-16T15:29:53.646Z,11.07
2022-12-16T15:32:53.359Z,10.10
2022-12-16T15:35:48.261Z,14.52
2022-12-16T15:38:49.321Z,13.45
2022-12-16T15:41:41.443Z,11.05
2022-12-16T15:44:52.735Z,14.13
2022-12-16T15:47:54.869Z,12.18
2022-12-16T15:50:43.695Z,13.32
2022-12-16T15:54:03.066Z,10.02
2022-12-16T15:57:17.106Z,13.85
2022-12-16T16:00:15.122Z,10.87
2022-12-16T16:03:16.706Z,12.60
2022-12-16T16:06:11.724Z,15.27
2022-12-16T16:09:00.739Z,12.15
2022-12-16T16:12:07.252Z,10.00
2022-12-16T16:15:09.450Z,8.52
2022-12-16T16:18:06.594Z,8.10
2022-12-16T16:20:54.320Z,9.00
2022-12-16T16:23:43.032Z,8.90
2022-12-16T16:26:33.989Z,9.88
2022-12-16T16:29:24.564Z,9.18
2022-12-16T16:32:22.305Z,9.93
2022-12-16T16:35:10.290Z,15.60
2022-12-16T16:37:59.451Z,14.27
2022-12-16T16:40:51.007Z,13.15
2022-12-16T16:43:37.729Z,12.90
2022-12-16T16:46:48.144Z,17.25
2022-12-16T16:49:43.500Z,32.17
2022-12-16T16:55:59.987Z,8.13
2022-12-16T16:58:59.365Z,7.85
2022-12-16T17:01:54.519Z,8.55
2022-12-16T17:04:58.282Z,9.73
2022-12-16T17:08:03.038Z,8.63
2022-12-16T17:14:43.514Z,9.50
2022-12-16T17:17:42.003Z,8.43
2022-12-16T17:20:40.172Z,9.18
2022-12-16T17:23:53.271Z,9.00
2022-12-16T17:27:19.735Z,8.13
2022-12-16T17:30:08.591Z,8.05
2022-12-16T17:33:16.473Z,10.57
2022-12-16T17:36:13.084Z,8.23
2022-12-16T17:39:06.326Z,9.68
2022-12-16T17:45:47.230Z,8.93
2022-12-16T17:51:40.261Z,8.25
2022-12-16T17:54:34.649Z,7.97
2022-12-16T18:00:14.432Z,9.07
2022-12-16T18:03:08.122Z,9.57
2022-12-16T18:05:54.666Z,9.27
2022-12-16T18:08:45.296Z,8.60
2022-12-16T18:11:40.624Z,10.02
2022-12-16T18:14:32.253Z,14.55
2022-12-16T18:17:14.667Z,15.10
2022-12-16T18:20:02.514Z,16.15
2022-12-16T18:22:48.624Z,12.50
2022-12-16T18:25:35.017Z,9.98
2022-12-16T18:28:26.607Z,8.90
2022-12-16T18:31:14.976Z,15.73
2022-12-16T18:34:09.516Z,11.77
2022-12-16T18:36:59.515Z,10.15
2022-12-16T18:39:50.342Z,9.20
2022-12-16T18:42:40.650Z,10.82
2022-12-16T18:45:44.998Z,12.77
2022-12-16T18:48:34.519Z,12.98
2022-12-16T18:51:22.317Z,12.15
2022-12-16T18:54:12.137Z,12.18
2022-12-16T18:57:04.223Z,11.98
2022-12-16T18:59:52.455Z,11.15
2022-12-16T19:02:53.637Z,12.40
2022-12-16T19:05:49.065Z,12.27
2022-12-16T19:08:37.307Z,13.57
2022-12-16T19:11:38.144Z,13.60
2022-12-16T19:14:45.259Z,14.88
2022-12-16T19:17:38.669Z,14.15
2022-12-16T19:20:29.977Z,12.23
2022-12-16T19:26:07.033Z,11.20
2022-12-16T19:28:55.504Z,11.27
2022-12-16T19:31:51.803Z,10.07
2022-12-16T19:34:43.433Z,10.35
2022-12-16T19:37:51.522Z,10.68
2022-12-16T19:40:45.814Z,9.10
2022-12-16T19:43:34.630Z,9.18
2022-12-16T19:52:41.934Z,11.20
2022-12-16T19:58:37.996Z,10.27
2022-12-16T20:01:28.006Z,10.45
2022-12-16T20:04:17.744Z,15.95
2022-12-16T20:07:10.906Z,13.15
2022-12-16T20:10:00.737Z,12.55
2022-12-16T20:12:56.185Z,11.35
2022-12-16T20:15:49.044Z,13.52
2022-12-16T20:18:51.793Z,13.90
2022-12-16T20:21:48.799Z,12.60
2022-12-16T20:24:37.045Z,13.15
2022-12-16T20:27:44.276Z,13.05
2022-12-16T20:30:30.982Z,12.32
2022-12-16T20:33:18.036Z,12.57
2022-12-16T20:36:17.797Z,14.50
2022-12-16T20:39:04.023Z,11.45
2022-12-16T20:41:55.956Z,11.15
2022-12-16T20:44:48.725Z,11.30
2022-12-16T20:47:35.186Z,12.48
2022-12-16T20:50:24.697Z,11.80
2022-12-16T20:53:12.026Z,11.45
2022-12-16T20:56:05.704Z,11.35
2022-12-16T20:58:56.149Z,12.02
2022-12-16T21:04:51.060Z,11.77
2022-12-16T21:07:40.565Z,11.70
2022-12-16T21:10:29.931Z,13.63
2022-12-16T21:13:27.211Z,13.95
2022-12-16T21:16:16.333Z,14.00
2022-12-16T21:19:08.589Z,11.45
2022-12-16T21:21:59.509Z,11.90
2022-12-16T21:24:51.735Z,12.07
2022-12-16T21:27:42.577Z,8.82
2022-12-16T21:30:33.239Z,9.13
2022-12-16T21:33:20.687Z,9.57
2022-12-16T21:36:11.193Z,9.32
2022-12-16T21:38:58.109Z,8.50
2022-12-16T21:41:44.114Z,9.10
2022-12-16T21:44:30.452Z,9.68
2022-12-16T21:47:21.607Z,11.50
2022-12-16T21:50:12.210Z,10.35
2022-12-16T21:52:59.519Z,12.00
2022-12-16T21:55:52.516Z,10.25
2022-12-16T22:01:27.683Z,10.52
2022-12-16T22:04:16.950Z,10.50
2022-12-16T22:07:07.913Z,10.43
2022-12-16T22:13:04.465Z,15.30
2022-12-16T22:15:58.131Z,18.02
2022-12-16T22:18:47.045Z,14.50
2022-12-16T22:21:36.535Z,17.75
2022-12-16T22:24:24.273Z,17.40
2022-12-16T22:27:13.759Z,17.67
2022-12-16T22:30:03.114Z,16.98
2022-12-16T22:32:56.593Z,13.45
2022-12-16T22:35:47.098Z,10.52
2022-12-16T22:38:33.068Z,14.57
2022-12-16T22:41:21.760Z,15.25
2022-12-16T22:44:10.328Z,15.32
2022-12-16T22:46:57.651Z,13.90
2022-12-16T22:49:45.788Z,14.00
2022-12-16T22:52:34.965Z,14.02
2022-12-16T22:55:40.941Z,15.25
2022-12-16T22:58:36.183Z,14.63
2022-12-16T23:01:43.129Z,14.50
2022-12-16T23:04:26.824Z,12.60
2022-12-16T23:07:16.158Z,13.50
2022-12-16T23:10:02.599Z,13.65
2022-12-16T23:12:48.550Z,13.43
2022-12-16T23:15:36.082Z,13.13
2022-12-16T23:18:31.667Z,12.70
2022-12-16T23:21:20.411Z,11.18
2022-12-16T23:24:25.788Z,12.02
2022-12-16T23:27:14.236Z,13.70
2022-12-16T23:33:05.244Z,12.75
2022-12-16T23:35:54.820Z,13.60
2022-12-16T23:38:50.966Z,12.68
2022-12-16T23:41:51.529Z,13.25
2022-12-16T23:44:56.194Z,14.35
2022-12-16T23:47:46.259Z,14.25
2022-12-16T23:50:43.180Z,15.35
2022-12-16T23:53:36.570Z,13.82
2022-12-16T23:56:27.207Z,12.35
2022-12-16T23:59:27.531Z,13.02
